createdAt,value
2022-12-17T00:00:36.208Z,-3.70
2022-12-17T00:03:21.728Z,-3.80
2022-12-17T00:06:06.827Z,-3.80
2022-12-17T00:08:52.351Z,-3.80
2022-12-17T00:11:37.763Z,-3.90
2022-12-17T00:14:23.292Z,-4.00
2022-12-17T00:17:11.718Z,-4.00
2022-12-17T00:19:57.042Z,-4.10
2022-12-17T00:22:42.387Z,-4.10
2022-12-17T00:25:27.964Z,-4.10
2022-12-17T00:28:13.041Z,-4.40
2022-12-17T00:30:58.261Z,-4.40
2022-12-17T00:33:43.936Z,-4.40
2022-12-17T00:36:29.205Z,-4.60
2022-12-17T00:39:14.626Z,-4.60
2022-12-17T00:41:59.924Z,-4.70
2022-12-17T00:44:45.253Z,-4.70
2022-12-17T00:47:30.865Z,-4.80
2022-12-17T00:50:15.974Z,-4.80
2022-12-17T00:53:01.377Z,-4.50
2022-12-17T00:55:46.670Z,-4.30
2022-12-17T00:58:32.073Z,-4.50
2022-12-17T01:01:19.112Z,-4.70
2022-12-17T01:04:04.774Z,-4.80
2022-12-17T01:06:51.632Z,-4.80
2022-12-17T01:09:37.584Z,-5.00
2022-12-17T01:12:24.065Z,-5.10
2022-12-17T01:15:09.511Z,-5.00
2022-12-17T01:17:56.297Z,-4.90
2022-12-17T01:20:41.779Z,-4.90
2022-12-17T01:23:27.514Z,-4.90
2022-12-17T01:26:14.341Z,-5.00
2022-12-17T01:28:59.666Z,-5.10
2022-12-17T01:31:45.293Z,-5.20
2022-12-17T01:34:30.689Z,-5.10
2022-12-17T01:37:16.048Z,-5.10
2022-12-17T01:40:01.332Z,-5.30
2022-12-17T01:42:46.612Z,-5.40
2022-12-17T01:45:33.030Z,-5.20
2022-12-17T01:48:22.312Z,-5.10
2022-12-17T01:51:12.020Z,-5.10
2022-12-17T01:54:01.951Z,-5.10
2022-12-17T01:56:47.419Z,-5.10
2022-12-17T01:59:38.507Z,-5.10
2022-12-17T02:02:23.915Z,-5.20
2022-12-17T02:05:09.193Z,-5.30
2022-12-17T02:08:06.784Z,-5.40
2022-12-17T02:11:06.461Z,-5.40
2022-12-17T02:13:58.551Z,-5.50
2022-12-17T02:16:53.530Z,-5.60
2022-12-17T02:19:57.764Z,-5.40
2022-12-17T02:22:46.219Z,-5.30
2022-12-17T02:25:47.346Z,-5.50
2022-12-17T02:28:32.900Z,-5.50
2022-12-17T02:31:18.362Z,-5.40
2022-12-17T02:34:04.149Z,-5.40
2022-12-17T02:36:49.643Z,-5.60
2022-12-17T02:39:34.878Z,-5.70
2022-12-17T02:42:20.231Z,-5.80
2022-12-17T02:45:05.564Z,-5.80
2022-12-17T02:47:51.036Z,-5.80
2022-12-17T02:50:36.496Z,-5.90
2022-12-17T02:53:22.495Z,-5.80
2022-12-17T02:56:07.875Z,-5.80
2022-12-17T02:58:53.221Z,-5.80
2022-12-17T03:01:38.631Z,-5.70
2022-12-17T03:04:23.878Z,-5.80
2022-12-17T03:07:09.309Z,-5.80
2022-12-17T03:09:54.603Z,-5.90
2022-12-17T03:12:39.877Z,-5.90
2022-12-17T03:15:25.728Z,-5.80
2022-12-17T03:18:12.135Z,-5.90
2022-12-17T03:20:57.524Z,-6.00
2022-12-17T03:23:42.981Z,-5.90
2022-12-17T03:26:28.350Z,-6.00
2022-12-17T03:29:13.703Z,-6.10
2022-12-17T03:31:59.020Z,-6.20
2022-12-17T03:34:44.369Z,-6.30
2022-12-17T03:37:29.777Z,-6.40
2022-12-17T03:40:15.082Z,-6.30
2022-12-17T03:43:00.464Z,-6.40
2022-12-17T03:45:45.844Z,-6.50
2022-12-17T03:48:33.266Z,-6.40
2022-12-17T03:51:19.516Z,-6.40
2022-12-17T03:54:05.321Z,-6.50
2022-12-17T03:56:50.574Z,-6.50
2022-12-17T03:59:35.894Z,-6.60
2022-12-17T04:02:21.301Z,-6.50
2022-12-17T04:05:06.624Z,-6.50
2022-12-17T04:07:51.953Z,-6.50
2022-12-17T04:10:37.365Z,-6.60
2022-12-17T04:13:22.684Z,-6.80
2022-12-17T04:16:08.269Z,-6.90
2022-12-17T04:18:53.681Z,-6.70
2022-12-17T04:21:39.145Z,-6.70
2022-12-17T04:24:24.704Z,-6.70
2022-12-17T04:27:10.019Z,-6.90
2022-12-17T04:29:55.487Z,-6.90
2022-12-17T04:32:40.801Z,-7.00
2022-12-17T04:35:26.383Z,-7.00
2022-12-17T04:38:11.771Z,-7.00
2022-12-17T04:40:57.140Z,-6.90
2022-12-17T04:43:42.580Z,-6.70
2022-12-17T04:46:28.099Z,-6.60
2022-12-17T04:49:13.414Z,-6.60
2022-12-17T04:51:58.666Z,-6.70
2022-12-17T04:54:43.930Z,-6.40
2022-12-17T04:57:29.368Z,-6.20
2022-12-17T05:00:14.692Z,-6.00
2022-12-17T05:03:00.200Z,-6.10
2022-12-17T05:05:45.527Z,-6.30
2022-12-17T05:08:30.979Z,-6.50
2022-12-17T05:11:23.652Z,-6.60
2022-12-17T05:14:09.113Z,-6.70
2022-12-17T05:16:54.328Z,-6.70
2022-12-17T05:19:39.613Z,-6.70
2022-12-17T05:22:25.024Z,-6.90
2022-12-17T05:25:10.467Z,-6.90
2022-12-17T05:27:55.883Z,-6.90
2022-12-17T05:30:41.215Z,-6.90
2022-12-17T05:33:27.041Z,-7.00
2022-12-17T05:36:12.392Z,-7.00
2022-12-17T05:38:57.730Z,-7.00
2022-12-17T05:41:43.151Z,-7.00
2022-12-17T05:44:28.548Z,-7.10
2022-12-17T05:47:13.920Z,-6.90
2022-12-17T05:49:59.364Z,-6.40
2022-12-17T05:52:44.713Z,-6.40
2022-12-17T05:55:30.174Z,-6.40
2022-12-17T05:58:23.792Z,-6.30
2022-12-17T06:01:09.146Z,-6.30
2022-12-17T06:03:54.557Z,-6.10
2022-12-17T06:06:39.673Z,-6.00
2022-12-17T06:09:25.007Z,-6.30
2022-12-17T06:12:10.356Z,-6.60
2022-12-17T06:14:55.620Z,-6.80
2022-12-17T06:17:41.170Z,-6.90
2022-12-17T06:20:27.105Z,-7.00
2022-12-17T06:23:23.740Z,-7.00
2022-12-17T06:26:11.920Z,-7.00
2022-12-17T06:28:57.438Z,-6.90
2022-12-17T06:31:42.935Z,-7.00
2022-12-17T06:34:28.361Z,-7.00
2022-12-17T06:37:13.746Z,-6.90
2022-12-17T06:39:59.140Z,-7.00
2022-12-17T06:42:44.561Z,-7.10
2022-12-17T06:45:38.080Z,-7.10
2022-12-17T06:48:26.108Z,-7.20
2022-12-17T06:51:15.596Z,-7.20
2022-12-17T06:54:00.916Z,-7.30
2022-12-17T06:56:47.065Z,-7.30
2022-12-17T06:59:32.329Z,-7.20
2022-12-17T07:02:17.865Z,-7.30
2022-12-17T07:05:02.957Z,-7.30
2022-12-17T07:07:48.247Z,-7.30
2022-12-17T07:10:33.662Z,-7.30
2022-12-17T07:13:26.108Z,-7.30
2022-12-17T07:16:11.971Z,-7.40
2022-12-17T07:18:57.974Z,-7.30
2022-12-17T07:21:43.616Z,-7.30
2022-12-17T07:24:29.297Z,-7.30
2022-12-17T07:27:14.488Z,-7.30
2022-12-17T07:29:59.974Z,-7.20
2022-12-17T07:32:45.410Z,-7.20
2022-12-17T07:35:30.945Z,-7.00
2022-12-17T07:38:20.244Z,-7.00
2022-12-17T07:41:05.488Z,-7.10
2022-12-17T07:43:53.287Z,-7.20
2022-12-17T07:46:38.764Z,-7.30
2022-12-17T07:49:25.899Z,-7.40
2022-12-17T07:52:11.737Z,-7.30
2022-12-17T07:54:57.049Z,-7.20
2022-12-17T07:57:42.393Z,-7.20
2022-12-17T08:00:28.052Z,-7.20
2022-12-17T08:03:17.660Z,-7.10
2022-12-17T08:06:02.989Z,-7.20
2022-12-17T08:08:48.445Z,-7.20
2022-12-17T08:11:33.779Z,-7.20
2022-12-17T08:14:19.289Z,-7.00
2022-12-17T08:17:04.553Z,-7.00
2022-12-17T08:19:50.063Z,-6.90
2022-12-17T08:22:35.442Z,-6.80
2022-12-17T08:25:20.776Z,-6.90
2022-12-17T08:28:11.049Z,-6.80
2022-12-17T08:31:07.506Z,-6.80
2022-12-17T08:33:53.356Z,-6.60
2022-12-17T08:36:38.587Z,-6.60
2022-12-17T08:39:23.966Z,-6.50
2022-12-17T08:42:09.417Z,-6.40
2022-12-17T08:44:54.760Z,-6.30
2022-12-17T08:47:42.719Z,-6.20
2022-12-17T08:50:28.164Z,-6.00
2022-12-17T08:53:17.652Z,-5.80
2022-12-17T08:56:03.147Z,-5.70
2022-12-17T08:58:48.576Z,-5.60
2022-12-17T09:01:34.076Z,-5.50
2022-12-17T09:04:19.299Z,-5.50
2022-12-17T09:07:04.696Z,-5.40
2022-12-17T09:09:49.991Z,-5.40
2022-12-17T09:12:35.348Z,-5.30
2022-12-17T09:15:20.737Z,-5.20
2022-12-17T09:18:06.253Z,-5.10
2022-12-17T09:20:51.463Z,-4.90
2022-12-17T09:23:37.249Z,-4.70
2022-12-17T09:26:22.805Z,-4.50
2022-12-17T09:29:08.309Z,-4.40
2022-12-17T09:31:53.772Z,-4.20
2022-12-17T09:34:39.163Z,-4.10
2022-12-17T09:37:24.532Z,-4.00
2022-12-17T09:40:09.822Z,-3.80
2022-12-17T09:43:12.964Z,-3.80
2022-12-17T09:46:11.651Z,-3.70
2022-12-17T09:49:05.707Z,-3.60
2022-12-17T09:51:52.749Z,-3.60
2022-12-17T09:54:47.826Z,-3.40
2022-12-17T09:57:38.712Z,-3.30
2022-12-17T10:01:00.911Z,-3.20
2022-12-17T10:03:48.171Z,-3.00
2022-12-17T10:06:42.908Z,-2.90
2022-12-17T10:09:37.457Z,-2.80
2022-12-17T10:12:35.160Z,-2.70
2022-12-17T10:15:20.365Z,-2.50
2022-12-17T10:18:05.815Z,-2.50
2022-12-17T10:20:56.905Z,-2.40
2022-12-17T10:23:51.992Z,-2.30
2022-12-17T10:26:40.104Z,-2.30
2022-12-17T10:29:52.092Z,-2.30
2022-12-17T10:32:41.967Z,-2.20
2022-12-17T10:35:39.076Z,-2.10
2022-12-17T10:38:56.875Z,-2.10
2022-12-17T10:41:45.005Z,-2.00
2022-12-17T10:44:50.415Z,-2.00
2022-12-17T10:47:43.929Z,-1.90
2022-12-17T10:50:31.862Z,-1.80
2022-12-17T10:53:18.153Z,-1.70
2022-12-17T10:56:13.286Z,-1.60
2022-12-17T10:59:07.911Z,-1.50
2022-12-17T11:01:53.896Z,-1.40
2022-12-17T11:04:44.160Z,-1.40
2022-12-17T11:07:54.688Z,-1.20
2022-12-17T11:10:49.664Z,-1.10
2022-12-17T11:13:49.387Z,-1.10
2022-12-17T11:16:52.108Z,-1.00
2022-12-17T11:20:07.170Z,-0.80
2022-12-17T11:23:02.102Z,-0.80
2022-12-17T11:26:18.714Z,-0.60
2022-12-17T11:29:04.106Z,-0.40
2022-12-17T11:32:01.163Z,-0.20
2022-12-17T11:35:20.382Z,0.00
2022-12-17T11:38:24.256Z,0.20
2022-12-17T11:41:20.393Z,0.30
2022-12-17T11:44:26.617Z,0.40
2022-12-17T11:47:43.093Z,0.40
2022-12-17T11:50:47.168Z,0.50
2022-12-17T11:53:57.083Z,0.60
2022-12-17T11:56:51.020Z,0.70
2022-12-17T11:59:55.149Z,0.90
2022-12-17T12:03:17.064Z,1.00
2022-12-17T12:06:11.279Z,1.10
2022-12-17T12:09:14.596Z,1.20
2022-12-17T12:12:21.397Z,1.40
2022-12-17T12:15:27.932Z,1.40
2022-12-17T12:18:22.036Z,1.60
2022-12-17T12:21:48.885Z,1.60
2022-12-17T12:24:58.824Z,1.70
2022-12-17T12:27:53.156Z,1.80
2022-12-17T12:30:48.108Z,1.70
2022-12-17T12:33:48.264Z,1.90
2022-12-17T12:36:37.144Z,2.00
2022-12-17T12:39:23.696Z,2.00
2022-12-17T12:42:37.379Z,1.90
2022-12-17T12:45:42.161Z,1.90
2022-12-17T12:48:42.351Z,2.10
2022-12-17T12:51:43.424Z,2.10
2022-12-17T12:54:51.514Z,2.00
2022-12-17T12:57:48.342Z,1.90
2022-12-17T13:01:06.236Z,1.70
2022-12-17T13:04:03.541Z,1.30
2022-12-17T13:06:51.220Z,1.00
2022-12-17T13:09:18.048Z,0.70
2022-12-17T13:11:48.184Z,0.50
2022-12-17T13:14:44.201Z,0.40
2022-12-17T13:17:16.793Z,0.30
2022-12-17T13:19:47.214Z,0.20
2022-12-17T13:22:23.371Z,0.10
2022-12-17T13:24:54.447Z,0.10
2022-12-17T13:27:36.044Z,0.10
2022-12-17T13:30:17.762Z,0.10
2022-12-17T13:33:05.868Z,0.10
2022-12-17T13:36:06.103Z,0.10
2022-12-17T13:38:41.632Z,0.00
2022-12-17T13:41:12.978Z,0.00
2022-12-17T13:43:44.673Z,-0.20
2022-12-17T13:46:25.698Z,-0.20
2022-12-17T13:48:57.756Z,-0.20
2022-12-17T13:51:28.124Z,-0.30
2022-12-17T13:53:57.831Z,-0.30
2022-12-17T13:56:27.461Z,-0.30
2022-12-17T13:58:55.683Z,-0.30
2022-12-17T14:01:23.080Z,-0.30
2022-12-17T14:04:08.090Z,-0.40
2022-12-17T14:06:37.795Z,-0.40
2022-12-17T14:09:05.214Z,-0.40
2022-12-17T14:11:51.972Z,-0.50
2022-12-17T14:14:32.337Z,-0.50
2022-12-17T14:17:00.498Z,-0.60
2022-12-17T14:19:28.417Z,-0.70
2022-12-17T14:21:55.844Z,-0.80
2022-12-17T14:24:27.002Z,-0.90
2022-12-17T14:26:56.386Z,-0.90
2022-12-17T14:29:25.500Z,-1.00
2022-12-17T14:32:21.193Z,-1.00
2022-12-17T14:34:47.980Z,-1.10
2022-12-17T14:37:21.438Z,-1.20
2022-12-17T14:39:48.506Z,-1.30
2022-12-17T14:42:26.574Z,-1.40
2022-12-17T14:44:57.756Z,-1.40
2022-12-17T14:47:34.702Z,-1.50
2022-12-17T14:50:11.893Z,-1.60
2022-12-17T14:52:53.112Z,-1.70
2022-12-17T14:55:28.633Z,-1.70
2022-12-17T14:58:13.616Z,-1.80
2022-12-17T15:00:41.489Z,-1.80
2022-12-17T15:03:14.639Z,-2.00
2022-12-17T15:05:41.278Z,-1.90
2022-12-17T15:08:07.908Z,-2.00
2022-12-17T15:10:34.572Z,-2.10
2022-12-17T15:13:01.303Z,-2.20
2022-12-17T15:15:28.360Z,-2.40
2022-12-17T15:17:55.028Z,-2.50
2022-12-17T15:20:21.688Z,-2.50
2022-12-17T15:22:48.584Z,-2.60
2022-12-17T15:25:18.093Z,-2.60
2022-12-17T15:27:45.456Z,-2.70
2022-12-17T15:30:19.010Z,-2.80
2022-12-17T15:32:47.148Z,-2.90
2022-12-17T15:35:14.423Z,-2.90
2022-12-17T15:37:41.081Z,-3.10
2022-12-17T15:40:11.757Z,-3.10
2022-12-17T15:43:04.459Z,-3.10
2022-12-17T15:45:31.855Z,-3.00
2022-12-17T15:47:58.392Z,-3.20
2022-12-17T15:50:25.014Z,-3.20
2022-12-17T15:52:51.590Z,-3.10
2022-12-17T15:55:18.197Z,-3.20
2022-12-17T15:57:44.874Z,-3.20
2022-12-17T16:00:12.180Z,-3.20
2022-12-17T16:02:39.119Z,-3.40
2022-12-17T16:05:06.532Z,-3.40
2022-12-17T16:07:33.291Z,-3.30
2022-12-17T16:10:04.792Z,-3.40
2022-12-17T16:12:32.758Z,-3.50
2022-12-17T16:14:59.331Z,-3.50
2022-12-17T16:17:25.903Z,-3.50
2022-12-17T16:19:52.562Z,-3.50
2022-12-17T16:22:19.295Z,-3.60
2022-12-17T16:24:46.090Z,-3.60
2022-12-17T16:27:13.901Z,-3.60
2022-12-17T16:29:40.500Z,-3.70
2022-12-17T16:32:07.061Z,-3.70
2022-12-17T16:34:33.727Z,-3.80
2022-12-17T16:37:01.472Z,-3.80
2022-12-17T16:39:28.607Z,-3.90
2022-12-17T16:41:55.290Z,-4.00
2022-12-17T16:44:21.845Z,-4.00
2022-12-17T16:46:48.706Z,-4.10
2022-12-17T16:49:20.574Z,-4.10
2022-12-17T16:51:50.519Z,-4.10
2022-12-17T16:54:20.355Z,-4.20
2022-12-17T16:56:47.747Z,-4.20
2022-12-17T16:59:15.910Z,-4.30
2022-12-17T17:01:45.521Z,-4.30
2022-12-17T17:04:14.067Z,-4.20
2022-12-17T17:06:44.857Z,-4.10
2022-12-17T17:09:12.523Z,-4.10
2022-12-17T17:11:39.593Z,-4.10
2022-12-17T17:14:07.523Z,-4.20
2022-12-17T17:16:34.620Z,-4.20
2022-12-17T17:19:01.822Z,-4.30
2022-12-17T17:21:30.054Z,-4.60
2022-12-17T17:24:07.167Z,-4.70
2022-12-17T17:26:34.908Z,-4.80
2022-12-17T17:29:02.182Z,-4.80
2022-12-17T17:32:01.290Z,-4.90
2022-12-17T17:34:15.873Z,-5.00
2022-12-17T17:36:42.855Z,-5.00
2022-12-17T17:39:09.432Z,-5.10
2022-12-17T17:41:36.955Z,-5.00
2022-12-17T17:44:11.784Z,-5.00
2022-12-17T17:46:39.059Z,-5.00
2022-12-17T17:49:07.512Z,-5.00
2022-12-17T17:52:08.524Z,-5.00
2022-12-17T17:54:24.128Z,-5.00
2022-12-17T17:56:50.716Z,-5.00
2022-12-17T17:59:19.193Z,-5.10
2022-12-17T18:01:49.319Z,-5.10
2022-12-17T18:04:19.223Z,-5.10
2022-12-17T18:07:09.044Z,-5.20
2022-12-17T18:09:33.736Z,-5.20
2022-12-17T18:12:20.327Z,-5.30
2022-12-17T18:15:12.520Z,-5.30
2022-12-17T18:17:33.433Z,-5.20
2022-12-17T18:20:00.001Z,-5.30
2022-12-17T18:22:28.259Z,-5.30
2022-12-17T18:24:54.912Z,-5.20
2022-12-17T18:27:21.472Z,-5.30
2022-12-17T18:29:48.032Z,-5.40
2022-12-17T18:32:14.601Z,-5.30
2022-12-17T18:34:41.385Z,-5.20
2022-12-17T18:37:08.115Z,-5.20
2022-12-17T18:39:34.832Z,-5.20
2022-12-17T18:42:20.207Z,-5.30
2022-12-17T18:44:46.876Z,-5.20
2022-12-17T18:47:13.740Z,-5.30
2022-12-17T18:49:40.469Z,-5.30
2022-12-17T18:52:11.754Z,-5.20
2022-12-17T18:54:41.499Z,-5.20
2022-12-17T18:57:08.160Z,-5.20
2022-12-17T18:59:34.915Z,-5.10
2022-12-17T19:02:01.757Z,-5.00
2022-12-17T19:04:28.502Z,-5.00
2022-12-17T19:06:55.356Z,-4.90
2022-12-17T19:09:25.403Z,-4.90
2022-12-17T19:11:52.915Z,-4.90
2022-12-17T19:14:22.076Z,-4.90
2022-12-17T19:16:50.162Z,-5.00
2022-12-17T19:19:17.323Z,-5.00
2022-12-17T19:21:44.324Z,-5.10
2022-12-17T19:24:16.580Z,-5.20
2022-12-17T19:26:44.052Z,-5.30
2022-12-17T19:29:12.327Z,-5.30
2022-12-17T19:31:39.534Z,-5.30
2022-12-17T19:34:07.903Z,-5.20
2022-12-17T19:36:35.965Z,-5.30
2022-12-17T19:39:05.771Z,-5.30
2022-12-17T19:41:32.832Z,-5.40
2022-12-17T19:44:01.743Z,-5.40
2022-12-17T19:46:29.846Z,-5.50
2022-12-17T19:48:57.275Z,-5.60
2022-12-17T19:51:26.133Z,-5.60
2022-12-17T19:53:54.511Z,-5.70
2022-12-17T19:56:29.972Z,-5.70
2022-12-17T19:59:02.259Z,-5.70
2022-12-17T20:01:32.000Z,-5.70
2022-12-17T20:03:59.069Z,-5.70
2022-12-17T20:06:31.374Z,-5.80
2022-12-17T20:08:59.212Z,-5.80
2022-12-17T20:11:35.793Z,-5.70
2022-12-17T20:14:15.843Z,-5.80
2022-12-17T20:16:46.473Z,-5.80
2022-12-17T20:19:16.257Z,-5.80
2022-12-17T20:21:43.213Z,-5.70
2022-12-17T20:24:11.198Z,-5.70
2022-12-17T20:26:38.524Z,-5.80
2022-12-17T20:29:06.387Z,-5.90
2022-12-17T20:31:33.981Z,-5.90
2022-12-17T20:34:01.657Z,-6.00
2022-12-17T20:36:28.258Z,-6.00
2022-12-17T20:38:55.090Z,-6.00
2022-12-17T20:41:24.485Z,-6.00
2022-12-17T20:43:51.635Z,-6.00
2022-12-17T20:46:20.067Z,-6.20
2022-12-17T20:48:46.839Z,-6.30
2022-12-17T20:51:21.542Z,-6.30
2022-12-17T20:53:48.177Z,-6.30
2022-12-17T20:56:17.703Z,-6.30
2022-12-17T20:58:44.368Z,-6.30
2022-12-17T21:01:15.470Z,-6.30
2022-12-17T21:03:42.969Z,-6.10
2022-12-17T21:06:18.609Z,-5.90
2022-12-17T21:08:50.535Z,-5.80
2022-12-17T21:11:27.045Z,-5.60
2022-12-17T21:13:54.818Z,-5.50
2022-12-17T21:16:24.713Z,-5.50
2022-12-17T21:18:51.313Z,-5.40
2022-12-17T21:21:20.452Z,-5.40
2022-12-17T21:23:48.076Z,-5.40
2022-12-17T21:26:20.626Z,-5.40
2022-12-17T21:28:49.481Z,-5.50
2022-12-17T21:31:37.970Z,-5.60
2022-12-17T21:34:06.541Z,-5.70
2022-12-17T21:36:34.083Z,-5.70
2022-12-17T21:39:01.287Z,-5.90
2022-12-17T21:41:32.432Z,-6.00
2022-12-17T21:44:01.415Z,-6.10
2022-12-17T21:46:29.152Z,-6.10
2022-12-17T21:49:01.033Z,-6.10
2022-12-17T21:51:29.011Z,-6.00
2022-12-17T21:53:58.766Z,-6.10
2022-12-17T21:56:26.779Z,-6.30
2022-12-17T21:58:58.852Z,-6.30
2022-12-17T22:01:29.578Z,-6.30
2022-12-17T22:03:58.664Z,-6.30
2022-12-17T22:06:31.788Z,-6.40
2022-12-17T22:09:03.856Z,-6.40
2022-12-17T22:11:39.694Z,-6.40
2022-12-17T22:14:09.109Z,-6.50
2022-12-17T22:16:43.368Z,-6.50
2022-12-17T22:19:12.352Z,-6.60
2022-12-17T22:21:40.515Z,-6.50
2022-12-17T22:24:07.577Z,-6.50
2022-12-17T22:26:34.440Z,-6.50
2022-12-17T22:29:01.171Z,-6.50
2022-12-17T22:31:46.632Z,-6.60
2022-12-17T22:35:32.686Z,-6.50
2022-12-17T22:39:21.242Z,-6.50
2022-12-17T22:44:07.740Z,-6.50
2022-12-17T22:44:38.221Z,-6.50
2022-12-17T22:45:40.729Z,-6.40
2022-12-17T22:48:09.499Z,-6.30
2022-12-17T22:50:38.392Z,-6.40
2022-12-17T22:53:09.703Z,-6.40
2022-12-17T22:55:37.118Z,-6.30
2022-12-17T22:58:04.294Z,-6.20
2022-12-17T23:00:34.985Z,-6.20
2022-12-17T23:03:02.516Z,-6.20
2022-12-17T23:05:29.712Z,-6.30
2022-12-17T23:07:57.615Z,-6.40
2022-12-17T23:10:25.805Z,-6.60
2022-12-17T23:12:56.874Z,-6.60
2022-12-17T23:15:36.765Z,-6.70
2022-12-17T23:18:06.060Z,-6.60
2022-12-17T23:20:35.216Z,-6.60
2022-12-17T23:23:01.882Z,-6.70
2022-12-17T23:25:29.182Z,-6.60
2022-12-17T23:27:56.135Z,-6.60
2022-12-17T23:30:23.048Z,-6.90
2022-12-17T23:32:49.943Z,-6.90
2022-12-17T23:35:16.625Z,-6.90
2022-12-17T23:37:43.304Z,-6.80
2022-12-17T23:40:11.044Z,-6.80
2022-12-17T23:42:38.440Z,-6.70
2022-12-17T23:45:06.681Z,-6.80
2022-12-17T23:47:33.247Z,-6.70
2022-12-17T23:49:59.851Z,-6.80
2022-12-17T23:52:26.541Z,-7.00
2022-12-17T23:54:53.209Z,-7.10
2022-12-17T23:57:19.991Z,-7.10
2022-12-17T23:59:46.716Z,-7.10
